Mascot, New South Wales

1:15 PM AEST on September 01, 2015 (GMT +1000)
Kingsford Smith International | | Change Station
CLOSE
Current Station
Airport
Location: Sydney,
Elevation: 20 ft
Nearby Weather Stations

Elev 20 ft 33.95 °S, 151.17 °E | Updated 15 minutes ago

Clear
Clear
61 °F
Feels Like 61 °F
N
8
Wind Variable Wind from South

Today
High -- | Low -- °F
--% Chance of Precip.
Yesterday
High -- | Low -- °F
Precip. -- in
6:14 AM 5:36 PM
Waning Gibbous, 92% visible
Pressure 29.95 in
Visibility -9999.0 miles
Clouds
Dew Point 39 °F
Humidity 45%
Rainfall 0.00 in
Snow Depth Not available.
UV Not available.
Pollen Not available.
Air Quality Not available.
Flu Activity Not available.
METAR YSSY 010300Z 17007KT CAVOK 16/04 Q1014 NOSIG
Pressure 29.95 in
Visibility -9999.0 miles
Clouds
Dew Point 39 °F
Humidity 45%
Rainfall 0.00 in
Snow Depth Not available.
UV Not available.
Pollen Not available.
Air Quality Not available.
Flu Activity Not available.
METAR YSSY 010300Z 17007KT CAVOK 16/04 Q1014 NOSIG

10-Day Weather Forecast

×

Almanac

Astronomy

Sep. 01, 2015 Rise Set
Actual Time
Civil Twilight
Nautical Twilight
Astronomical Twilight
Moon
Length of Visible Light
Length of Day
Tomorrow will be .
, % of the Moon is Illuminated

Today's Extremes

Country Highs Country Lows

Community

WunderPhotos

Upload Photos

1,851,471 photos uploaded!

WunderBlogs® & News

Nearby

Air Quality

  Air Quality AQ Index Pollutant
Not available.

Snow Depth

Station Depth Elevation

Earthquake Activity

City Distance Mag. Time & Date
Minimum magnitude displayed is 2.5.

Coastal Water Temperatures

Place Temperature

Stations

Nearby Weather Stations

Station Location Temp. Windchill Dew Point Humidity Wind Precip. Elev Updated Type